createdAt,value
2022-10-09T00:00:48.475Z,97966.31
2022-10-09T00:03:17.267Z,97960.56
2022-10-09T00:05:46.751Z,97950.06
2022-10-09T00:08:13.297Z,97960.44
2022-10-09T00:10:43.937Z,97955.91
2022-10-09T00:13:11.279Z,97952.31
2022-10-09T00:15:43.119Z,97959.28
2022-10-09T00:18:11.855Z,97953.44
2022-10-09T00:20:40.313Z,97954.34
2022-10-09T00:23:07.507Z,97950.06
2022-10-09T00:25:35.938Z,97954.50
2022-10-09T00:28:03.600Z,97953.78
2022-10-09T00:30:30.276Z,97952.09
2022-10-09T00:32:56.901Z,97949.31
2022-10-09T00:35:24.812Z,97956.19
2022-10-09T00:37:51.374Z,97955.34
2022-10-09T00:40:17.974Z,97951.88
2022-10-09T00:42:45.678Z,97954.72
2022-10-09T00:45:20.223Z,97957.28
2022-10-09T00:47:50.744Z,97958.41
2022-10-09T00:50:22.595Z,97960.91
2022-10-09T00:52:52.824Z,97953.19
2022-10-09T00:55:20.732Z,97954.03
2022-10-09T00:57:47.660Z,97957.66
2022-10-09T01:00:15.302Z,97954.03
2022-10-09T01:02:41.903Z,97947.13
2022-10-09T01:05:10.317Z,97948.13
2022-10-09T01:07:52.006Z,97948.97
2022-10-09T01:10:35.625Z,97945.53
2022-10-09T01:13:20.824Z,97937.81
2022-10-09T01:15:58.060Z,97944.72
2022-10-09T01:18:33.019Z,97939.41
2022-10-09T01:21:13.734Z,97939.25
2022-10-09T01:24:07.631Z,97932.47
2022-10-09T01:26:57.183Z,97933.34
2022-10-09T01:29:26.592Z,97930.72
2022-10-09T01:31:54.009Z,97923.00
2022-10-09T01:34:21.900Z,97917.94
2022-10-09T01:36:50.533Z,97930.34
2022-10-09T01:39:21.163Z,97931.22
2022-10-09T01:41:50.026Z,97929.56
2022-10-09T01:44:23.159Z,97922.72
2022-10-09T01:46:50.247Z,97929.63
2022-10-09T01:49:25.534Z,97922.59
2022-10-09T01:52:00.369Z,97916.25
2022-10-09T01:55:02.963Z,97918.78
2022-10-09T01:57:40.634Z,97913.69
2022-10-09T02:00:10.839Z,97909.59
2022-10-09T02:02:42.660Z,97903.66
2022-10-09T02:05:12.279Z,97896.78
2022-10-09T02:07:39.394Z,97896.75
2022-10-09T02:10:08.070Z,97897.69
2022-10-09T02:12:40.616Z,97898.44
2022-10-09T02:15:08.785Z,97888.13
2022-10-09T02:17:39.461Z,97902.88
2022-10-09T02:20:13.501Z,97900.25
2022-10-09T02:22:41.010Z,97895.78
2022-10-09T02:25:08.058Z,97893.13
2022-10-09T02:27:35.723Z,97893.06
2022-10-09T02:30:03.282Z,97884.34
2022-10-09T02:32:29.942Z,97880.75
2022-10-09T02:34:56.697Z,97876.31
2022-10-09T02:37:23.288Z,97873.03
2022-10-09T02:39:50.276Z,97873.69
2022-10-09T02:42:17.195Z,97872.78
2022-10-09T02:44:43.854Z,97864.81
2022-10-09T02:47:10.514Z,97872.13
2022-10-09T02:49:37.142Z,97867.28
2022-10-09T02:52:03.809Z,97872.44
2022-10-09T02:54:30.374Z,97869.63
2022-10-09T02:56:56.936Z,97871.47
2022-10-09T02:59:23.516Z,97874.69
2022-10-09T03:01:50.232Z,97868.63
2022-10-09T03:04:16.953Z,97875.91
2022-10-09T03:06:43.521Z,97876.19
2022-10-09T03:09:10.082Z,97870.91
2022-10-09T03:11:36.711Z,97868.50
2022-10-09T03:14:03.274Z,97865.19
2022-10-09T03:16:29.898Z,97869.50
2022-10-09T03:18:56.539Z,97865.31
2022-10-09T03:21:25.993Z,97866.22
2022-10-09T03:23:53.470Z,97873.31
2022-10-09T03:26:23.194Z,97862.97
2022-10-09T03:28:51.889Z,97870.63
2022-10-09T03:31:50.761Z,97878.50
2022-10-09T03:34:07.674Z,97870.72
2022-10-09T03:36:34.286Z,97875.94
2022-10-09T03:39:00.823Z,97879.28
2022-10-09T03:41:27.410Z,97870.56
2022-10-09T03:43:53.963Z,97868.78
2022-10-09T03:46:20.645Z,97865.34
2022-10-09T03:48:47.230Z,97868.13
2022-10-09T03:51:13.818Z,97863.75
2022-10-09T03:53:40.415Z,97862.75
2022-10-09T03:56:07.009Z,97855.63
2022-10-09T03:58:33.626Z,97856.31
2022-10-09T04:01:00.270Z,97854.34
2022-10-09T04:03:27.637Z,97854.44
2022-10-09T04:05:54.267Z,97853.28
2022-10-09T04:08:20.916Z,97848.88
2022-10-09T04:10:47.487Z,97844.56
2022-10-09T04:13:14.314Z,97847.47
2022-10-09T04:15:40.892Z,97850.97
2022-10-09T04:18:07.776Z,97845.88
2022-10-09T04:20:34.385Z,97848.16
2022-10-09T04:23:01.340Z,97842.63
2022-10-09T04:25:27.926Z,97851.34
2022-10-09T04:27:54.537Z,97847.69
2022-10-09T04:30:21.127Z,97844.94
2022-10-09T04:32:48.655Z,97844.09
2022-10-09T04:35:16.746Z,97841.19
2022-10-09T04:37:43.648Z,97851.66
2022-10-09T04:40:10.544Z,97837.63
2022-10-09T04:42:37.375Z,97840.13
2022-10-09T04:45:04.789Z,97831.38
2022-10-09T04:47:31.456Z,97834.00
2022-10-09T04:49:58.015Z,97831.31
2022-10-09T04:52:24.631Z,97827.84
2022-10-09T04:54:51.234Z,97827.84
2022-10-09T04:57:17.871Z,97829.63
2022-10-09T04:59:44.474Z,97822.66
2022-10-09T05:02:11.161Z,97834.78
2022-10-09T05:04:38.202Z,97831.25
2022-10-09T05:07:04.772Z,97828.63
2022-10-09T05:09:31.371Z,97824.22
2022-10-09T05:11:57.916Z,97827.84
2022-10-09T05:14:24.595Z,97827.03
2022-10-09T05:17:12.952Z,97838.38
2022-10-09T05:19:40.066Z,97836.66
2022-10-09T05:22:06.716Z,97827.16
2022-10-09T05:24:33.278Z,97827.94
2022-10-09T05:26:59.916Z,97834.09
2022-10-09T05:29:26.508Z,97820.94
2022-10-09T05:31:53.191Z,97823.56
2022-10-09T05:34:19.869Z,97828.75
2022-10-09T05:36:46.463Z,97830.47
2022-10-09T05:39:13.208Z,97829.53
2022-10-09T05:41:39.888Z,97828.50
2022-10-09T05:44:06.584Z,97828.97
2022-10-09T05:46:33.232Z,97832.19
2022-10-09T05:49:05.205Z,97828.28
2022-10-09T05:51:37.030Z,97830.88
2022-10-09T05:54:04.785Z,97824.16
2022-10-09T05:56:33.909Z,97834.19
2022-10-09T05:59:03.091Z,97829.53
2022-10-09T06:01:35.682Z,97815.88
2022-10-09T06:04:03.549Z,97822.91
2022-10-09T06:06:32.521Z,97824.09
2022-10-09T06:08:59.205Z,97823.44
2022-10-09T06:11:31.773Z,97811.25
2022-10-09T06:14:00.120Z,97823.50
2022-10-09T06:16:29.733Z,97819.75
2022-10-09T06:18:57.109Z,97818.63
2022-10-09T06:21:25.298Z,97815.94
2022-10-09T06:23:54.134Z,97822.69
2022-10-09T06:26:22.251Z,97825.22
2022-10-09T06:28:49.641Z,97820.91
2022-10-09T06:31:19.078Z,97823.34
2022-10-09T06:33:47.615Z,97821.56
2022-10-09T06:36:20.150Z,97822.19
2022-10-09T06:38:47.063Z,97823.19
2022-10-09T06:41:15.635Z,97821.41
2022-10-09T06:43:42.810Z,97822.19
2022-10-09T06:46:12.462Z,97828.25
2022-10-09T06:48:40.402Z,97822.84
2022-10-09T06:51:15.179Z,97829.38
2022-10-09T06:53:45.083Z,97824.50
2022-10-09T06:56:12.478Z,97825.47
2022-10-09T06:58:40.157Z,97826.91
2022-10-09T07:01:15.584Z,97835.00
2022-10-09T07:03:45.078Z,97823.19
2022-10-09T07:06:17.274Z,97821.81
2022-10-09T07:08:46.895Z,97821.97
2022-10-09T07:11:22.153Z,97818.16
2022-10-09T07:13:54.950Z,97825.47
2022-10-09T07:16:26.722Z,97822.47
2022-10-09T07:18:53.854Z,97827.09
2022-10-09T07:21:20.651Z,97824.72
2022-10-09T07:23:47.414Z,97824.38
2022-10-09T07:26:19.931Z,97832.72
2022-10-09T07:28:47.954Z,97832.25
2022-10-09T07:31:15.782Z,97831.84
2022-10-09T07:33:42.556Z,97833.16
2022-10-09T07:36:10.081Z,97826.41
2022-10-09T07:38:36.694Z,97831.19
2022-10-09T07:41:09.131Z,97829.47
2022-10-09T07:43:37.321Z,97835.97
2022-10-09T07:46:06.075Z,97824.94
2022-10-09T07:48:34.058Z,97825.28
2022-10-09T07:51:26.836Z,97815.84
2022-10-09T07:53:53.574Z,97820.19
2022-10-09T07:56:22.831Z,97819.44
2022-10-09T07:58:54.686Z,97813.03
2022-10-09T08:01:22.397Z,97810.91
2022-10-09T08:03:49.678Z,97810.41
2022-10-09T08:06:17.688Z,97812.19
2022-10-09T08:08:44.869Z,97817.78
2022-10-09T08:11:14.145Z,97820.63
2022-10-09T08:13:42.301Z,97813.31
2022-10-09T08:16:09.482Z,97814.09
2022-10-09T08:18:36.698Z,97812.25
2022-10-09T08:21:06.577Z,97805.09
2022-10-09T08:23:33.468Z,97806.69
2022-10-09T08:26:00.111Z,97807.72
2022-10-09T08:28:26.985Z,97795.75
2022-10-09T08:30:53.615Z,97795.81
2022-10-09T08:33:22.082Z,97806.16
2022-10-09T08:35:53.073Z,97799.31
2022-10-09T08:38:44.944Z,97801.50
2022-10-09T08:41:14.505Z,97790.72
2022-10-09T08:43:45.424Z,97798.16
2022-10-09T08:46:38.448Z,97795.50
2022-10-09T08:49:05.415Z,97792.41
2022-10-09T08:51:38.129Z,97791.38
2022-10-09T08:54:19.341Z,97793.94
2022-10-09T08:56:49.689Z,97792.69
2022-10-09T08:59:16.372Z,97797.03
2022-10-09T09:01:58.441Z,97794.63
2022-10-09T09:04:38.691Z,97793.44
2022-10-09T09:07:43.779Z,97788.28
2022-10-09T09:10:34.422Z,97779.50
2022-10-09T09:13:06.900Z,97780.81
2022-10-09T09:15:42.362Z,97774.56
2022-10-09T09:18:46.456Z,97769.38
2022-10-09T09:21:19.057Z,97765.69
2022-10-09T09:23:48.716Z,97763.06
2022-10-09T09:26:21.037Z,97763.53
2022-10-09T09:28:53.124Z,97759.00
2022-10-09T09:31:27.913Z,97754.03
2022-10-09T09:34:24.670Z,97746.50
2022-10-09T09:36:57.904Z,97742.59
2022-10-09T09:42:17.554Z,97736.91
2022-10-09T09:45:07.803Z,97733.78
2022-10-09T09:47:38.960Z,97727.44
2022-10-09T09:50:18.428Z,97724.81
2022-10-09T09:52:55.179Z,97721.34
2022-10-09T09:55:27.464Z,97711.22
2022-10-09T09:58:05.178Z,97714.81
2022-10-09T10:00:32.428Z,97708.03
2022-10-09T10:03:09.199Z,97703.56
2022-10-09T10:05:37.570Z,97702.06
2022-10-09T10:08:24.362Z,97690.00
2022-10-09T10:10:53.202Z,97697.53
2022-10-09T10:13:41.526Z,97690.22
2022-10-09T10:16:08.912Z,97692.78
2022-10-09T10:18:41.802Z,97699.69
2022-10-09T10:21:16.820Z,97674.88
2022-10-09T10:26:42.388Z,97677.59
2022-10-09T10:29:21.165Z,97676.59
2022-10-09T10:32:13.341Z,97678.53
2022-10-09T10:35:10.102Z,97677.75
2022-10-09T10:37:55.371Z,97673.09
2022-10-09T10:40:28.305Z,97665.56
2022-10-09T10:43:10.014Z,97661.19
2022-10-09T10:45:45.417Z,97667.97
2022-10-09T10:48:25.153Z,97674.06
2022-10-09T10:50:57.391Z,97663.91
2022-10-09T10:53:45.854Z,97676.97
2022-10-09T10:56:17.404Z,97658.00
2022-10-09T10:58:59.150Z,97653.06
2022-10-09T11:01:49.403Z,97650.34
2022-10-09T11:04:46.758Z,97655.81
2022-10-09T11:07:25.246Z,97655.09
2022-10-09T11:10:03.617Z,97647.31
2022-10-09T11:12:48.558Z,97653.56
2022-10-09T11:15:39.057Z,97647.09
2022-10-09T11:18:34.947Z,97649.16
2022-10-09T11:21:07.339Z,97640.22
2022-10-09T11:23:33.877Z,97648.44
2022-10-09T11:26:03.549Z,97637.13
2022-10-09T11:28:40.625Z,97639.03
2022-10-09T11:31:15.309Z,97629.28
2022-10-09T11:33:50.334Z,97617.69
2022-10-09T11:36:26.594Z,97620.47
2022-10-09T11:38:58.416Z,97611.03
2022-10-09T11:41:28.922Z,97612.53
2022-10-09T11:43:55.701Z,97610.19
2022-10-09T11:46:40.334Z,97606.97
2022-10-09T11:49:21.664Z,97599.81
2022-10-09T11:51:57.432Z,97595.28
2022-10-09T11:54:27.507Z,97591.47
2022-10-09T11:56:59.506Z,97593.31
2022-10-09T11:59:30.665Z,97592.81
2022-10-09T12:01:59.966Z,97593.31
2022-10-09T12:07:34.574Z,97589.94
2022-10-09T12:10:21.270Z,97595.00
2022-10-09T12:12:58.478Z,97594.16
2022-10-09T12:15:47.849Z,97587.50
2022-10-09T12:18:27.779Z,97580.84
2022-10-09T12:20:56.493Z,97569.75
2022-10-09T12:23:28.709Z,97565.28
2022-10-09T12:25:56.811Z,97552.97
2022-10-09T12:28:35.737Z,97546.72
2022-10-09T12:31:09.603Z,97553.09
2022-10-09T12:33:43.837Z,97550.69
2022-10-09T12:36:24.395Z,97544.28
2022-10-09T12:38:50.963Z,97542.97
2022-10-09T12:41:23.264Z,97539.31
2022-10-09T12:43:52.787Z,97539.69
2022-10-09T12:46:45.564Z,97529.06
2022-10-09T12:49:21.708Z,97530.28
2022-10-09T12:51:56.202Z,97529.59
2022-10-09T12:54:25.126Z,97529.19
2022-10-09T12:56:56.575Z,97514.94
2022-10-09T12:59:25.535Z,97510.25
2022-10-09T13:01:58.896Z,97510.75
2022-10-09T13:04:31.872Z,97505.16
2022-10-09T13:07:01.922Z,97502.91
2022-10-09T13:09:37.006Z,97502.16
2022-10-09T13:12:16.075Z,97496.53
2022-10-09T13:14:46.011Z,97493.63
2022-10-09T13:17:37.332Z,97492.88
2022-10-09T13:20:22.661Z,97489.50
2022-10-09T13:23:01.434Z,97484.78
2022-10-09T13:25:38.826Z,97487.06
2022-10-09T13:28:06.224Z,97478.50
2022-10-09T13:30:33.519Z,97484.66
2022-10-09T13:33:00.196Z,97487.66
2022-10-09T13:35:26.844Z,97479.81
2022-10-09T13:37:53.718Z,97481.16
2022-10-09T13:40:21.949Z,97474.28
2022-10-09T13:42:55.922Z,97469.69
2022-10-09T13:45:23.355Z,97466.56
2022-10-09T13:47:50.216Z,97457.38
2022-10-09T13:50:17.850Z,97452.81
2022-10-09T13:52:44.485Z,97449.75
2022-10-09T13:55:11.285Z,97449.88
2022-10-09T13:57:38.020Z,97452.56
2022-10-09T14:00:06.959Z,97450.41
2022-10-09T14:02:38.696Z,97440.28
2022-10-09T14:05:05.993Z,97440.28
2022-10-09T14:07:32.613Z,97442.41
2022-10-09T14:09:59.183Z,97432.06
2022-10-09T14:12:25.915Z,97421.28
2022-10-09T14:14:55.795Z,97421.66
2022-10-09T14:17:22.392Z,97415.63
2022-10-09T14:19:48.963Z,97414.28
2022-10-09T14:22:15.650Z,97408.19
2022-10-09T14:24:42.844Z,97406.50
2022-10-09T14:27:09.439Z,97407.94
2022-10-09T14:29:37.435Z,97406.50
2022-10-09T14:32:05.288Z,97399.38
2022-10-09T14:34:31.883Z,97389.94
2022-10-09T14:36:58.439Z,97393.53
2022-10-09T14:39:25.250Z,97383.94
2022-10-09T14:41:51.978Z,97381.63
2022-10-09T14:44:18.571Z,97373.41
2022-10-09T14:46:45.141Z,97378.00
2022-10-09T14:49:12.007Z,97369.81
2022-10-09T14:51:40.489Z,97374.88
2022-10-09T14:54:09.123Z,97362.69
2022-10-09T14:56:36.275Z,97362.44
2022-10-09T14:59:03.291Z,97353.03
2022-10-09T15:01:29.999Z,97348.44
2022-10-09T15:03:56.636Z,97343.13
2022-10-09T15:06:27.602Z,97350.16
2022-10-09T15:09:00.324Z,97343.41
2022-10-09T15:11:30.388Z,97334.34
2022-10-09T15:13:57.492Z,97347.72
2022-10-09T15:16:24.942Z,97343.50
2022-10-09T15:18:53.116Z,97338.94
2022-10-09T15:21:22.463Z,97339.78
2022-10-09T15:23:50.571Z,97334.34
2022-10-09T15:26:17.275Z,97331.94
2022-10-09T15:28:44.816Z,97326.41
2022-10-09T15:31:31.378Z,97329.06
2022-10-09T15:34:01.182Z,97328.13
2022-10-09T15:36:28.969Z,97319.44
2022-10-09T15:38:56.658Z,97318.25
2022-10-09T15:41:31.672Z,97319.56
2022-10-09T15:44:01.056Z,97320.41
2022-10-09T15:46:28.741Z,97320.66
2022-10-09T15:48:55.376Z,97307.66
2022-10-09T15:51:23.051Z,97313.81
2022-10-09T15:53:51.652Z,97313.19
2022-10-09T15:56:23.031Z,97308.63
2022-10-09T15:58:50.907Z,97301.84
2022-10-09T16:01:18.545Z,97306.19
2022-10-09T16:03:45.448Z,97303.28
2022-10-09T16:06:17.474Z,97301.63
2022-10-09T16:08:44.199Z,97297.75
2022-10-09T16:11:14.378Z,97295.63
2022-10-09T16:13:43.758Z,97297.69
2022-10-09T16:16:14.073Z,97293.22
2022-10-09T16:18:40.653Z,97300.28
2022-10-09T16:21:10.145Z,97292.91
2022-10-09T16:23:37.201Z,97293.97
2022-10-09T16:26:05.004Z,97296.44
2022-10-09T16:28:32.723Z,97296.50
2022-10-09T16:30:59.539Z,97303.94
2022-10-09T16:33:26.801Z,97297.72
2022-10-09T16:35:53.507Z,97296.19
2022-10-09T16:38:20.817Z,97302.50
2022-10-09T16:41:04.554Z,97298.19
2022-10-09T16:43:34.469Z,97296.28
2022-10-09T16:46:21.826Z,97296.94
2022-10-09T16:48:49.939Z,97301.41
2022-10-09T16:51:28.857Z,97300.75
2022-10-09T16:53:58.170Z,97300.88
2022-10-09T16:56:33.099Z,97297.72
2022-10-09T16:59:02.060Z,97300.81
2022-10-09T17:01:29.119Z,97303.25
2022-10-09T17:03:57.295Z,97306.91
2022-10-09T17:06:25.363Z,97314.09
2022-10-09T17:08:53.252Z,97316.38
2022-10-09T17:11:20.772Z,97312.16
2022-10-09T17:13:47.719Z,97315.44
2022-10-09T17:16:18.558Z,97316.38
2022-10-09T17:18:47.431Z,97316.00
2022-10-09T17:21:15.575Z,97318.44
2022-10-09T17:23:42.368Z,97316.34
2022-10-09T17:26:13.379Z,97317.97
2022-10-09T17:28:40.928Z,97314.31
2022-10-09T17:31:09.665Z,97309.34
2022-10-09T17:33:43.082Z,97309.00
2022-10-09T17:36:10.530Z,97304.50
2022-10-09T17:38:37.833Z,97310.41
2022-10-09T17:41:09.567Z,97310.16
2022-10-09T17:43:37.474Z,97300.75
2022-10-09T17:46:05.427Z,97305.47
2022-10-09T17:48:34.007Z,97292.69
2022-10-09T17:51:02.219Z,97293.59
2022-10-09T17:53:29.939Z,97296.00
2022-10-09T17:56:01.471Z,97287.16
2022-10-09T17:58:28.043Z,97291.91
2022-10-09T18:00:54.756Z,97288.81
2022-10-09T18:03:21.451Z,97292.06
2022-10-09T18:05:50.206Z,97291.94
2022-10-09T18:08:19.271Z,97291.09
2022-10-09T18:10:46.363Z,97279.22
2022-10-09T18:13:13.293Z,97281.25
2022-10-09T18:15:42.066Z,97275.16
2022-10-09T18:18:09.781Z,97276.50
2022-10-09T18:20:37.753Z,97274.81
2022-10-09T18:23:05.423Z,97272.47
2022-10-09T18:25:32.399Z,97273.66
2022-10-09T18:27:59.264Z,97257.22
2022-10-09T18:30:27.653Z,97265.53
2022-10-09T18:32:54.391Z,97266.03
2022-10-09T18:35:21.259Z,97256.72
2022-10-09T18:37:47.819Z,97258.06
2022-10-09T18:40:14.504Z,97263.63
2022-10-09T18:42:41.064Z,97258.88
2022-10-09T18:45:09.991Z,97254.94
2022-10-09T18:47:36.625Z,97252.34
2022-10-09T18:50:09.287Z,97248.56
2022-10-09T18:52:37.349Z,97247.31
2022-10-09T18:55:06.460Z,97247.84
2022-10-09T18:57:34.209Z,97247.47
2022-10-09T19:00:02.168Z,97242.97
2022-10-09T19:02:28.798Z,97248.75
2022-10-09T19:04:55.590Z,97241.81
2022-10-09T19:07:22.478Z,97242.50
2022-10-09T19:09:52.419Z,97248.25
2022-10-09T19:12:23.171Z,97242.13
2022-10-09T19:14:49.861Z,97235.63
2022-10-09T19:17:16.827Z,97238.56
2022-10-09T19:19:43.434Z,97234.34
2022-10-09T19:22:14.849Z,97224.25
2022-10-09T19:24:43.741Z,97225.75
2022-10-09T19:27:10.433Z,97226.69
2022-10-09T19:29:37.134Z,97221.41
2022-10-09T19:32:04.061Z,97221.63
2022-10-09T19:34:30.927Z,97218.41
2022-10-09T19:36:57.654Z,97228.47
2022-10-09T19:39:24.329Z,97223.28
2022-10-09T19:41:51.182Z,97210.44
2022-10-09T19:44:18.157Z,97218.53
2022-10-09T19:46:45.371Z,97215.06
2022-10-09T19:49:12.426Z,97213.72
2022-10-09T19:51:39.049Z,97204.38
2022-10-09T19:54:08.378Z,97187.53
2022-10-09T19:56:36.292Z,97181.97
2022-10-09T19:59:05.780Z,97179.69
2022-10-09T20:01:35.424Z,97181.00
2022-10-09T20:04:05.588Z,97182.81
2022-10-09T20:06:32.419Z,97177.31
2022-10-09T20:08:59.349Z,97170.13
2022-10-09T20:11:27.009Z,97171.72
2022-10-09T20:13:56.220Z,97177.66
2022-10-09T20:16:25.018Z,97171.84
2022-10-09T20:18:51.686Z,97171.19
2022-10-09T20:21:18.700Z,97171.97
2022-10-09T20:23:45.331Z,97169.41
2022-10-09T20:26:15.690Z,97169.63
2022-10-09T20:28:43.763Z,97169.53
2022-10-09T20:31:14.764Z,97173.22
2022-10-09T20:33:42.198Z,97162.66
2022-10-09T20:36:17.405Z,97162.44
2022-10-09T20:38:44.040Z,97166.88
2022-10-09T20:41:10.628Z,97171.09
2022-10-09T20:43:37.915Z,97173.72
2022-10-09T20:46:14.155Z,97164.13
2022-10-09T20:48:42.468Z,97158.38
2022-10-09T20:51:10.633Z,97163.88
2022-10-09T20:53:38.370Z,97166.81
2022-10-09T20:56:08.120Z,97163.66
2022-10-09T20:58:35.303Z,97161.84
2022-10-09T21:01:06.175Z,97154.97
2022-10-09T21:03:34.656Z,97167.72
2022-10-09T21:06:06.457Z,97158.63
2022-10-09T21:08:34.324Z,97163.69
2022-10-09T21:11:01.055Z,97160.44
2022-10-09T21:13:27.705Z,97160.94
2022-10-09T21:15:54.307Z,97159.97
2022-10-09T21:18:20.932Z,97160.16
2022-10-09T21:20:48.730Z,97159.03
2022-10-09T21:23:18.409Z,97153.75
2022-10-09T21:25:51.787Z,97152.06
2022-10-09T21:28:20.394Z,97158.94
2022-10-09T21:30:47.711Z,97156.41
2022-10-09T21:33:15.046Z,97160.16
2022-10-09T21:35:50.793Z,97154.88
2022-10-09T21:38:22.515Z,97153.63
2022-10-09T21:40:50.216Z,97147.53
2022-10-09T21:43:18.236Z,97153.63
2022-10-09T21:45:48.567Z,97148.03
2022-10-09T21:48:16.654Z,97148.34
2022-10-09T21:50:43.966Z,97148.34
2022-10-09T21:53:10.643Z,97146.69
2022-10-09T21:55:38.411Z,97148.75
2022-10-09T21:58:05.914Z,97134.94
2022-10-09T22:00:33.376Z,97134.75
2022-10-09T22:03:00.281Z,97130.31
2022-10-09T22:05:26.887Z,97126.84
2022-10-09T22:07:53.470Z,97141.91
2022-10-09T22:10:20.203Z,97129.69
2022-10-09T22:12:46.879Z,97134.00
2022-10-09T22:15:13.512Z,97127.88
2022-10-09T22:17:40.108Z,97133.91
2022-10-09T22:20:07.276Z,97128.53
2022-10-09T22:22:33.913Z,97133.78
2022-10-09T22:25:00.603Z,97131.44
2022-10-09T22:27:27.178Z,97121.47
2022-10-09T22:29:53.725Z,97121.34
2022-10-09T22:32:20.310Z,97121.47
2022-10-09T22:34:49.479Z,97112.72
2022-10-09T22:37:16.063Z,97114.72
2022-10-09T22:39:42.707Z,97107.00
2022-10-09T22:42:09.291Z,97103.53
2022-10-09T22:44:35.838Z,97101.94
2022-10-09T22:47:02.398Z,97091.41
2022-10-09T22:49:28.947Z,97099.41
2022-10-09T22:51:55.538Z,97093.19
2022-10-09T22:54:22.181Z,97091.53
2022-10-09T22:56:48.814Z,97090.75
2022-10-09T22:59:18.016Z,97099.81
2022-10-09T23:01:54.044Z,97098.97
2022-10-09T23:04:22.322Z,97098.75
2022-10-09T23:06:51.351Z,97093.50
2022-10-09T23:09:18.723Z,97102.16
2022-10-09T23:11:45.913Z,97091.34
2022-10-09T23:14:13.021Z,97094.41
2022-10-09T23:16:39.988Z,97099.00
2022-10-09T23:19:07.366Z,97107.09
2022-10-09T23:21:35.069Z,97105.44
2022-10-09T23:24:01.715Z,97099.50
2022-10-09T23:26:30.811Z,97107.50
2022-10-09T23:29:02.933Z,97102.66
2022-10-09T23:31:30.118Z,97097.09
2022-10-09T23:33:57.282Z,97102.03
2022-10-09T23:36:27.205Z,97099.09
2022-10-09T23:38:54.531Z,97091.00
2022-10-09T23:41:23.864Z,97093.25
2022-10-09T23:43:51.290Z,97096.06
2022-10-09T23:46:21.186Z,97101.34
2022-10-09T23:48:48.795Z,97091.75
2022-10-09T23:51:16.929Z,97092.50
2022-10-09T23:53:44.083Z,97091.94
2022-10-09T23:56:34.382Z,97091.28
2022-10-09T23:59:02.824Z,97088.00
